Time;durP1;ratioP1;P1;durP2;ratioP2;P2;SDS_P1;SDS_P2;PMS_P1;PMS_P2;Temp;Humidity;BMP_temperature;BMP_pressure;BME280_temperature;BME280_humidity;BME280_pressure;Samples;Min_cycle;Max_cycle;Signal;HPM_P1;HPM_P2
2022/09/10 00:02:24;;;;;;;7.85;3.97;;;17.30;99.90;;;;;;5012735;28;20187;-63
2022/09/10 00:04:50;;;;;;;8.43;3.58;;;17.30;99.90;;;;;;5016779;28;20750;-64
2022/09/10 00:07:17;;;;;;;7.88;5.35;;;17.30;99.90;;;;;;5027683;28;20230;-64
2022/09/10 00:09:43;;;;;;;7.20;4.28;;;17.40;99.90;;;;;;5057506;28;20236;-63
2022/09/10 00:12:09;;;;;;;6.60;3.47;;;17.50;99.90;;;;;;5018430;28;20195;-63
2022/09/10 00:14:35;;;;;;;9.35;3.90;;;17.60;99.90;;;;;;5014007;28;20214;-64
2022/09/10 00:17:02;;;;;;;6.38;3.60;;;17.60;99.90;;;;;;5012624;28;20235;-63
2022/09/10 00:19:30;;;;;;;6.80;3.58;;;17.70;99.90;;;;;;5020913;28;20186;-63
2022/09/10 00:21:56;;;;;;;8.60;3.13;;;17.80;99.90;;;;;;5012508;28;20186;-63
2022/09/10 00:24:22;;;;;;;7.35;4.00;;;17.80;99.90;;;;;;5017385;28;20621;-64
2022/09/10 00:26:49;;;;;;;12.55;4.55;;;17.70;99.90;;;;;;5051436;28;20566;-63
2022/09/10 00:29:16;;;;;;;4.07;3.55;;;17.70;99.90;;;;;;5030089;28;20182;-62
2022/09/10 00:31:42;;;;;;;4.15;3.53;;;17.70;99.90;;;;;;5026073;28;20644;-63
2022/09/10 00:34:10;;;;;;;9.52;4.03;;;17.80;99.90;;;;;;5014790;28;20186;-63
2022/09/10 00:36:40;;;;;;;6.07;3.40;;;17.70;99.90;;;;;;5031742;28;20706;-64
2022/09/10 00:39:09;;;;;;;4.35;3.45;;;17.70;99.90;;;;;;5025834;28;20271;-64
2022/09/10 00:41:38;;;;;;;7.45;3.38;;;17.70;99.90;;;;;;5023967;28;20180;-63
2022/09/10 00:44:39;;;;;;;6.25;3.30;;;17.60;99.90;;;;;;5012721;28;20536;-64
2022/09/10 00:47:20;;;;;;;6.78;3.55;;;17.50;99.90;;;;;;5019869;28;20545;-63
2022/09/10 00:49:50;;;;;;;12.80;2.83;;;17.50;99.90;;;;;;5011823;28;20183;-64
2022/09/10 00:52:16;;;;;;;8.35;3.67;;;17.40;99.90;;;;;;5017073;28;20661;-63
2022/09/10 00:54:43;;;;;;;9.25;3.97;;;17.50;99.90;;;;;;5017843;28;20635;-63
2022/09/10 00:57:13;;;;;;;5.15;3.47;;;17.30;99.90;;;;;;5021342;28;20215;-63
2022/09/10 00:59:48;;;;;;;29.00;4.72;;;17.30;99.90;;;;;;5014774;28;20207;-64
2022/09/10 01:02:14;;;;;;;5.68;3.90;;;17.50;99.90;;;;;;5018653;28;20215;-63
2022/09/10 01:04:41;;;;;;;6.65;3.83;;;17.60;99.90;;;;;;5034065;28;20658;-63
2022/09/10 01:07:09;;;;;;;10.00;4.32;;;17.60;99.90;;;;;;5019974;28;20206;-64
2022/09/10 01:09:36;;;;;;;8.05;3.75;;;17.40;99.90;;;;;;5016122;28;20206;-63
2022/09/10 01:12:26;;;;;;;6.28;3.88;;;17.40;99.90;;;;;;5022387;28;20187;-63
2022/09/10 01:15:06;;;;;;;4.65;4.18;;;17.40;99.90;;;;;;5015764;28;20176;-64
2022/09/10 01:17:44;;;;;;;12.10;4.05;;;17.50;99.90;;;;;;5021123;28;20210;-63
2022/09/10 01:20:18;;;;;;;6.55;3.70;;;17.60;99.90;;;;;;5015617;28;20625;-63
2022/09/10 01:23:26;;;;;;;6.50;4.05;;;17.60;99.90;;;;;;5025296;28;20173;-63
2022/09/10 01:25:52;;;;;;;5.60;4.38;;;17.60;99.90;;;;;;5022571;28;20645;-63
2022/09/10 01:28:32;;;;;;;7.18;3.88;;;17.70;99.90;;;;;;5032269;28;20191;-63
2022/09/10 01:31:10;;;;;;;11.77;4.53;;;17.60;99.90;;;;;;5022844;28;20182;-63
2022/09/10 01:33:48;;;;;;;8.23;4.18;;;17.60;99.90;;;;;;5020721;28;20207;-63
2022/09/10 01:36:21;;;;;;;6.10;4.07;;;17.60;99.90;;;;;;5026904;28;20179;-63
2022/09/10 01:38:49;;;;;;;6.07;3.70;;;17.70;99.90;;;;;;5014971;28;20195;-64
2022/09/10 01:41:15;;;;;;;6.25;4.07;;;17.60;99.90;;;;;;5023197;28;20179;-64
2022/09/10 01:43:41;;;;;;;7.28;4.03;;;17.60;99.90;;;;;;5029596;28;20328;-63
2022/09/10 01:46:28;;;;;;;6.28;5.22;;;17.50;99.90;;;;;;5020123;28;20190;-66
2022/09/10 01:49:19;;;;;;;9.88;4.70;;;17.70;99.90;;;;;;5029852;28;20190;-64
2022/09/10 01:51:45;;;;;;;6.43;4.50;;;17.70;99.90;;;;;;5013404;28;20745;-63
2022/09/10 01:54:27;;;;;;;7.55;4.30;;;17.80;99.90;;;;;;5027870;28;20182;-64
2022/09/10 01:57:17;;;;;;;5.88;3.83;;;17.70;99.90;;;;;;5033561;28;20663;-63
2022/09/10 01:59:43;;;;;;;6.22;4.57;;;17.70;99.90;;;;;;5026333;28;20179;-63
2022/09/10 02:02:22;;;;;;;7.03;5.45;;;17.80;99.90;;;;;;5032729;28;20178;-64
2022/09/10 02:04:50;;;;;;;6.97;4.13;;;17.70;99.90;;;;;;5032519;28;20188;-63
2022/09/10 02:07:21;;;;;;;7.35;4.47;;;17.60;99.90;;;;;;5022311;28;20642;-64
2022/09/10 02:09:47;;;;;;;9.48;4.95;;;17.70;99.90;;;;;;5014189;28;20209;-63
2022/09/10 02:12:18;;;;;;;10.18;5.22;;;17.70;99.90;;;;;;5022421;28;20277;-64
2022/09/10 02:14:46;;;;;;;6.03;4.28;;;17.80;99.90;;;;;;5022992;28;20652;-63
2022/09/10 02:17:12;;;;;;;5.28;4.30;;;17.70;99.90;;;;;;5014079;28;20242;-63
2022/09/10 02:19:38;;;;;;;6.07;5.22;;;17.70;99.90;;;;;;5013894;28;20676;-63
2022/09/10 02:22:04;;;;;;;7.20;4.70;;;17.60;99.90;;;;;;5026144;28;20708;-63
2022/09/10 02:24:30;;;;;;;6.45;4.25;;;17.50;99.90;;;;;;5014495;28;20187;-64
2022/09/10 02:26:56;;;;;;;12.15;5.88;;;17.60;99.90;;;;;;5014226;28;20213;-63
2022/09/10 02:29:22;;;;;;;5.10;3.85;;;17.80;99.90;;;;;;5013042;28;20184;-64
2022/09/10 02:31:47;;;;;;;9.02;4.18;;;17.90;99.90;;;;;;5013551;28;20187;-64
2022/09/10 02:34:14;;;;;;;11.23;3.80;;;17.70;99.90;;;;;;5012977;28;20271;-64
2022/09/10 02:36:40;;;;;;;5.30;4.53;;;17.80;99.90;;;;;;5018388;28;20237;-64
2022/09/10 02:39:06;;;;;;;6.82;5.20;;;17.80;99.90;;;;;;5030667;28;20897;-63
2022/09/10 02:41:33;;;;;;;12.38;5.30;;;17.70;99.90;;;;;;5021156;28;20271;-64
2022/09/10 02:44:02;;;;;;;6.47;4.70;;;17.70;99.90;;;;;;5019927;28;20182;-63
2022/09/10 02:46:29;;;;;;;7.05;5.20;;;17.80;99.90;;;;;;5017976;28;20191;-64
2022/09/10 02:48:55;;;;;;;6.75;4.82;;;17.80;99.90;;;;;;5018645;28;20190;-63
2022/09/10 02:51:21;;;;;;;11.60;4.95;;;17.80;99.90;;;;;;5014277;28;20534;-64
2022/09/10 02:53:48;;;;;;;6.93;5.28;;;17.90;99.90;;;;;;5016958;28;20194;-64
2022/09/10 02:56:14;;;;;;;8.55;4.65;;;17.90;99.90;;;;;;5042147;28;20182;-64
2022/09/10 02:58:40;;;;;;;8.65;5.18;;;17.90;99.90;;;;;;5014471;28;20187;-64
2022/09/10 03:01:08;;;;;;;7.13;5.35;;;17.80;99.90;;;;;;5024660;28;20306;-63
2022/09/10 03:03:35;;;;;;;9.95;5.80;;;17.70;99.90;;;;;;5016435;28;20183;-63
2022/09/10 03:06:01;;;;;;;10.88;6.25;;;17.70;99.90;;;;;;5013173;28;20183;-63
2022/09/10 03:08:27;;;;;;;11.32;6.47;;;17.80;99.90;;;;;;5012270;28;20203;-63
2022/09/10 03:10:55;;;;;;;13.30;6.30;;;17.80;99.90;;;;;;5048561;28;20185;-64
2022/09/10 03:13:20;;;;;;;10.98;6.10;;;17.80;99.90;;;;;;5027628;28;20664;-63
2022/09/10 03:15:46;;;;;;;8.00;6.75;;;17.70;99.90;;;;;;5015575;28;20273;-63
2022/09/10 03:18:12;;;;;;;9.85;5.68;;;17.80;99.90;;;;;;5025279;28;20302;-64
2022/09/10 03:20:40;;;;;;;14.30;7.22;;;17.80;99.90;;;;;;5018831;28;20190;-64
2022/09/10 03:23:06;;;;;;;10.52;6.65;;;17.70;99.90;;;;;;5020987;28;20263;-63
2022/09/10 03:25:32;;;;;;;14.57;6.45;;;17.70;99.90;;;;;;5013554;28;20237;-63
2022/09/10 03:27:58;;;;;;;14.18;8.43;;;17.60;99.90;;;;;;5027714;28;20644;-63
2022/09/10 03:30:24;;;;;;;10.80;7.03;;;17.60;99.90;;;;;;5030741;28;20189;-63
2022/09/10 03:32:50;;;;;;;15.98;8.77;;;17.80;99.90;;;;;;5017199;28;20191;-62
2022/09/10 03:35:15;;;;;;;15.18;8.00;;;17.70;99.90;;;;;;5016709;28;20175;-63
2022/09/10 03:37:43;;;;;;;13.13;8.18;;;17.60;99.90;;;;;;5011642;28;20219;-63
2022/09/10 03:40:09;;;;;;;14.73;8.18;;;17.70;99.90;;;;;;5015182;28;20188;-64
2022/09/10 03:42:35;;;;;;;13.05;9.32;;;17.60;99.90;;;;;;5013049;28;20610;-63
2022/09/10 03:45:01;;;;;;;16.70;8.93;;;17.70;99.90;;;;;;5012008;28;20246;-63
2022/09/10 03:47:26;;;;;;;16.65;10.43;;;17.60;99.90;;;;;;5012837;28;20198;-63
2022/09/10 03:49:53;;;;;;;15.85;8.25;;;17.70;99.90;;;;;;5014874;28;20190;-63
2022/09/10 03:52:21;;;;;;;14.90;9.50;;;17.70;99.90;;;;;;5011918;28;20187;-63
2022/09/10 03:54:48;;;;;;;15.82;9.15;;;17.70;99.90;;;;;;5012333;28;20186;-65
2022/09/10 03:57:14;;;;;;;20.88;9.35;;;17.70;99.90;;;;;;5024209;28;20218;-63
2022/09/10 03:59:40;;;;;;;15.27;10.68;;;17.50;99.90;;;;;;5012254;28;20636;-63
2022/09/10 04:02:08;;;;;;;22.35;10.85;;;17.50;99.90;;;;;;5018189;28;20194;-63
2022/09/10 04:04:36;;;;;;;17.75;10.02;;;17.70;99.90;;;;;;5021856;28;20179;-63
2022/09/10 04:07:05;;;;;;;19.10;10.30;;;17.80;99.90;;;;;;5021227;28;20617;-63
2022/09/10 04:09:31;;;;;;;18.23;12.43;;;17.70;99.90;;;;;;5013974;28;20222;-63
2022/09/10 04:11:58;;;;;;;17.00;10.60;;;17.60;99.90;;;;;;5019284;28;20198;-63
2022/09/10 04:14:25;;;;;;;19.88;11.07;;;17.60;99.90;;;;;;5016686;28;20175;-63
2022/09/10 04:16:51;;;;;;;16.02;12.07;;;17.60;99.90;;;;;;5023486;28;20215;-63
2022/09/10 04:19:16;;;;;;;16.00;9.77;;;17.60;99.90;;;;;;5028283;28;20219;-63
2022/09/10 04:21:43;;;;;;;17.67;10.80;;;17.60;99.90;;;;;;5021424;28;20287;-63
2022/09/10 04:24:12;;;;;;;23.25;9.43;;;17.70;99.90;;;;;;4994965;28;20246;-65
2022/09/10 04:26:38;;;;;;;19.77;10.80;;;17.70;99.90;;;;;;4999973;28;20601;-63
2022/09/10 04:29:04;;;;;;;26.58;11.63;;;17.70;99.90;;;;;;5027194;28;20182;-63
2022/09/10 04:31:30;;;;;;;15.50;9.45;;;17.60;99.90;;;;;;5023321;28;20191;-63
2022/09/10 04:33:55;;;;;;;26.38;12.25;;;17.60;99.90;;;;;;5023251;28;20249;-63
2022/09/10 04:36:21;;;;;;;19.17;9.75;;;17.60;99.90;;;;;;5016859;28;20676;-64
2022/09/10 04:38:46;;;;;;;21.42;12.05;;;17.60;99.90;;;;;;5026043;28;20584;-63
2022/09/10 04:41:14;;;;;;;26.17;15.35;;;17.50;99.90;;;;;;5030039;28;20183;-64
2022/09/10 04:43:40;;;;;;;20.27;11.38;;;17.40;99.90;;;;;;5020216;28;20694;-64
2022/09/10 04:46:06;;;;;;;23.08;12.73;;;17.50;99.90;;;;;;5026827;28;20297;-64
2022/09/10 04:48:32;;;;;;;18.65;11.00;;;17.50;99.90;;;;;;5015858;28;20192;-64
2022/09/10 04:50:58;;;;;;;25.83;13.32;;;17.60;99.90;;;;;;5015184;28;20187;-64
2022/09/10 04:53:26;;;;;;;22.50;13.90;;;17.60;99.90;;;;;;5016306;28;20258;-64
2022/09/10 04:55:53;;;;;;;20.55;12.35;;;17.70;99.90;;;;;;5016120;28;20218;-64
2022/09/10 04:58:20;;;;;;;20.48;11.85;;;17.70;99.90;;;;;;5028197;28;20291;-64
2022/09/10 05:00:46;;;;;;;18.98;11.60;;;17.70;99.90;;;;;;5015986;28;20183;-64
2022/09/10 05:03:12;;;;;;;21.35;12.82;;;17.80;99.90;;;;;;5030588;28;20190;-64
2022/09/10 05:05:38;;;;;;;21.58;11.63;;;17.90;99.90;;;;;;5038061;28;20183;-63
2022/09/10 05:08:06;;;;;;;25.60;14.63;;;17.90;99.90;;;;;;4998232;28;20200;-64
2022/09/10 05:10:31;;;;;;;20.63;11.15;;;18.00;99.90;;;;;;5015980;28;20206;-64
2022/09/10 05:12:57;;;;;;;22.42;12.35;;;17.90;99.90;;;;;;5016461;28;20187;-64
2022/09/10 05:15:23;;;;;;;22.50;12.15;;;17.80;99.90;;;;;;5031042;28;20637;-64
2022/09/10 05:17:48;;;;;;;29.15;13.02;;;17.80;99.90;;;;;;5026804;28;20206;-64
2022/09/10 05:20:14;;;;;;;21.25;12.80;;;17.90;99.90;;;;;;4993936;28;20196;-64
2022/09/10 05:22:41;;;;;;;21.00;11.82;;;17.90;99.90;;;;;;5016429;28;20671;-64
2022/09/10 05:25:08;;;;;;;20.77;13.20;;;17.90;99.90;;;;;;5015815;28;20187;-64
2022/09/10 05:27:33;;;;;;;26.45;12.18;;;17.80;99.90;;;;;;5025288;28;20202;-65
2022/09/10 05:30:00;;;;;;;18.08;10.77;;;17.80;99.90;;;;;;5046939;28;20199;-64
2022/09/10 05:32:27;;;;;;;16.33;10.68;;;17.70;99.90;;;;;;5030604;28;20270;-63
2022/09/10 05:34:53;;;;;;;24.00;13.25;;;17.70;99.90;;;;;;5015386;28;20172;-64
2022/09/10 05:37:19;;;;;;;25.83;11.48;;;17.80;99.90;;;;;;5012512;28;20276;-64
2022/09/10 05:39:47;;;;;;;19.42;12.27;;;17.80;99.90;;;;;;5030625;28;20559;-64
2022/09/10 05:42:13;;;;;;;20.98;13.93;;;17.80;99.90;;;;;;5026992;28;20539;-64
2022/09/10 05:44:40;;;;;;;20.98;12.10;;;17.90;99.90;;;;;;5027586;28;20282;-64
2022/09/10 05:47:06;;;;;;;24.65;12.68;;;17.90;99.90;;;;;;5019309;28;20605;-64
2022/09/10 05:49:32;;;;;;;19.95;13.27;;;18.00;99.90;;;;;;5031193;28;20640;-64
2022/09/10 05:51:57;;;;;;;20.90;13.27;;;18.00;99.90;;;;;;5019610;28;20179;-64
2022/09/10 05:54:23;;;;;;;22.40;12.30;;;18.10;99.90;;;;;;5027429;28;20189;-64
2022/09/10 05:56:49;;;;;;;20.45;12.98;;;18.00;99.90;;;;;;5018419;28;20670;-64
2022/09/10 05:59:15;;;;;;;23.67;11.60;;;18.00;99.90;;;;;;5018109;28;20253;-64
2022/09/10 06:01:40;;;;;;;21.00;11.85;;;17.90;99.90;;;;;;5018720;28;20253;-64
2022/09/10 06:04:06;;;;;;;21.38;13.07;;;17.90;99.90;;;;;;5016721;28;20273;-64
2022/09/10 06:06:31;;;;;;;24.70;12.20;;;17.90;99.90;;;;;;5024195;28;20545;-64
2022/09/10 06:08:57;;;;;;;19.25;12.18;;;18.00;99.90;;;;;;5025564;28;20294;-65
2022/09/10 06:11:23;;;;;;;23.50;13.65;;;18.10;99.90;;;;;;5016389;28;20191;-64
2022/09/10 06:13:49;;;;;;;29.00;11.75;;;18.10;99.90;;;;;;5025352;28;20193;-64
2022/09/10 06:16:16;;;;;;;16.73;10.60;;;18.10;99.90;;;;;;5020304;28;20278;-64
2022/09/10 06:18:42;;;;;;;18.35;10.15;;;18.20;99.90;;;;;;5022925;28;20633;-63
2022/09/10 06:21:14;;;;;;;20.52;11.35;;;18.20;99.90;;;;;;5026896;28;20266;-64
2022/09/10 06:23:40;;;;;;;23.25;11.15;;;18.10;99.90;;;;;;5016915;28;20221;-64
2022/09/10 06:26:09;;;;;;;16.88;11.13;;;18.20;99.90;;;;;;5014106;28;20180;-63
2022/09/10 06:28:35;;;;;;;18.00;10.82;;;18.20;99.90;;;;;;5022512;28;20174;-63
2022/09/10 06:31:04;;;;;;;16.23;11.02;;;18.20;99.90;;;;;;5026485;28;20236;-64
2022/09/10 06:33:30;;;;;;;21.10;11.13;;;18.20;99.90;;;;;;5020571;28;20175;-63
2022/09/10 06:35:58;;;;;;;24.67;11.05;;;18.30;99.90;;;;;;5014389;28;20248;-63
2022/09/10 06:38:26;;;;;;;18.67;11.13;;;18.30;99.90;;;;;;5015626;28;20227;-64
2022/09/10 06:40:53;;;;;;;16.60;10.65;;;18.30;99.90;;;;;;5015679;28;20183;-64
2022/09/10 06:43:24;;;;;;;16.65;10.75;;;18.20;99.90;;;;;;5017514;28;20256;-62
2022/09/10 06:45:51;;;;;;;16.00;11.35;;;18.30;99.90;;;;;;5021187;28;20526;-63
2022/09/10 06:48:21;;;;;;;12.68;9.27;;;18.20;99.90;;;;;;5017911;28;20223;-63
2022/09/10 06:50:52;;;;;;;19.27;10.75;;;18.20;99.90;;;;;;5025361;28;20326;-63
2022/09/10 06:53:20;;;;;;;20.80;11.23;;;18.30;99.90;;;;;;5025121;28;20190;-64
2022/09/10 06:55:49;;;;;;;15.63;9.88;;;18.20;99.90;;;;;;5024510;28;20546;-63
2022/09/10 06:58:16;;;;;;;21.33;10.10;;;18.40;99.90;;;;;;5021312;28;20249;-64
2022/09/10 07:00:42;;;;;;;18.60;11.80;;;18.50;99.90;;;;;;5019377;28;20199;-63
2022/09/10 07:03:08;;;;;;;29.02;11.55;;;18.40;99.90;;;;;;5019613;28;20179;-64
2022/09/10 07:05:34;;;;;;;20.08;10.38;;;18.40;99.90;;;;;;5015861;28;20257;-65
2022/09/10 07:08:00;;;;;;;15.57;10.52;;;18.40;99.90;;;;;;5018427;28;20241;-67
2022/09/10 07:10:27;;;;;;;26.70;12.40;;;18.40;99.90;;;;;;5019981;28;20189;-64
2022/09/10 07:12:53;;;;;;;17.80;10.68;;;18.20;99.90;;;;;;5063452;28;20277;-64
2022/09/10 07:15:19;;;;;;;14.40;10.20;;;18.20;99.90;;;;;;5023072;28;20302;-64
2022/09/10 07:17:44;;;;;;;17.27;9.95;;;18.10;99.90;;;;;;5011953;28;20284;-63
2022/09/10 07:20:10;;;;;;;21.10;9.88;;;18.00;99.90;;;;;;5013259;28;20191;-63
2022/09/10 07:22:36;;;;;;;18.13;10.05;;;18.10;99.90;;;;;;5014091;28;20191;-63
2022/09/10 07:25:02;;;;;;;20.60;11.50;;;18.00;99.90;;;;;;5033279;28;20641;-63
2022/09/10 07:27:28;;;;;;;16.42;11.77;;;18.20;99.90;;;;;;5058850;28;20201;-63
2022/09/10 07:29:53;;;;;;;19.52;10.70;;;18.30;99.90;;;;;;5015051;28;20246;-63
2022/09/10 07:32:19;;;;;;;19.17;10.75;;;18.10;99.90;;;;;;5022963;28;20195;-64
2022/09/10 07:34:46;;;;;;;17.85;10.23;;;18.20;99.90;;;;;;5017226;28;20594;-64
2022/09/10 07:37:14;;;;;;;19.63;10.57;;;18.30;99.90;;;;;;5014033;28;20234;-64
2022/09/10 07:39:40;;;;;;;15.00;10.20;;;18.30;99.90;;;;;;5009494;28;20184;-64
2022/09/10 07:42:06;;;;;;;15.13;9.90;;;18.20;99.90;;;;;;5035748;28;20264;-64
2022/09/10 07:44:32;;;;;;;16.98;11.23;;;18.30;99.90;;;;;;5027950;28;20187;-64
2022/09/10 07:46:58;;;;;;;17.42;9.80;;;18.30;99.90;;;;;;5012913;28;20191;-63
2022/09/10 07:49:25;;;;;;;20.25;10.63;;;18.30;99.90;;;;;;5023499;28;20659;-65
2022/09/10 07:51:52;;;;;;;14.70;10.63;;;18.30;99.90;;;;;;5033385;28;20610;-65
2022/09/10 07:54:18;;;;;;;16.88;10.70;;;18.50;99.90;;;;;;5012878;28;20194;-64
2022/09/10 07:56:44;;;;;;;16.33;10.15;;;18.60;99.90;;;;;;5027713;28;20207;-64
2022/09/10 07:59:10;;;;;;;26.02;11.05;;;18.60;99.90;;;;;;5016091;28;20202;-64
2022/09/10 08:01:36;;;;;;;14.95;10.90;;;18.70;99.90;;;;;;5015096;28;20684;-64
2022/09/10 08:04:02;;;;;;;12.27;9.10;;;18.80;99.90;;;;;;5035562;28;20186;-63
2022/09/10 08:06:28;;;;;;;19.52;9.95;;;18.90;99.90;;;;;;5024888;28;20183;-61
2022/09/10 08:08:54;;;;;;;13.38;8.48;;;19.00;99.90;;;;;;5048919;28;20202;-63
2022/09/10 08:11:20;;;;;;;15.10;8.90;;;19.20;99.90;;;;;;5003763;28;20659;-62
2022/09/10 08:13:48;;;;;;;17.40;9.93;;;19.30;99.90;;;;;;4990657;28;20260;-62
2022/09/10 08:16:19;;;;;;;14.35;9.25;;;19.50;99.90;;;;;;5017510;28;20183;-63
2022/09/10 08:18:50;;;;;;;13.48;9.57;;;19.80;99.90;;;;;;5032591;28;20289;-63
2022/09/10 08:21:17;;;;;;;13.82;7.80;;;20.40;99.90;;;;;;5029714;28;20698;-65
2022/09/10 08:23:51;;;;;;;12.45;9.00;;;21.00;99.90;;;;;;5016937;28;20214;-64
2022/09/10 08:26:17;;;;;;;10.90;7.80;;;21.40;99.90;;;;;;5019915;28;20187;-63
2022/09/10 08:28:43;;;;;;;13.70;7.80;;;21.30;99.90;;;;;;5025875;28;20220;-63
2022/09/10 08:31:11;;;;;;;8.38;6.40;;;21.20;99.90;;;;;;5018149;28;20265;-63
2022/09/10 08:33:38;;;;;;;17.48;8.38;;;21.20;99.90;;;;;;5019148;28;20191;-65
2022/09/10 08:36:06;;;;;;;18.52;7.88;;;21.20;99.90;;;;;;5024115;28;20179;-64
2022/09/10 08:38:34;;;;;;;27.50;8.48;;;21.10;99.90;;;;;;5022033;28;20561;-65
2022/09/10 08:41:12;;;;;;;13.90;8.15;;;21.10;99.90;;;;;;5016425;28;20258;-65
2022/09/10 08:43:53;;;;;;;20.85;8.73;;;20.80;99.90;;;;;;5016423;28;20182;-65
2022/09/10 08:46:25;;;;;;;15.00;8.57;;;20.60;99.90;;;;;;5054466;28;20640;-65
2022/09/10 08:49:05;;;;;;;19.42;9.98;;;20.30;99.90;;;;;;5034726;28;20179;-65
2022/09/10 08:51:47;;;;;;;12.00;9.35;;;20.30;99.90;;;;;;5047710;28;20183;-63
2022/09/10 08:54:18;;;;;;;17.42;8.88;;;20.30;99.90;;;;;;5023875;28;20666;-64
2022/09/10 08:56:46;;;;;;;18.98;8.93;;;20.20;99.90;;;;;;5022869;28;20207;-63
2022/09/10 08:59:33;;;;;;;16.25;9.73;;;20.30;99.90;;;;;;5016148;28;20229;-63
2022/09/10 09:02:32;;;;;;;13.30;9.25;;;20.70;99.90;;;;;;5015652;28;20178;-65
2022/09/10 09:05:21;;;;;;;17.73;9.20;;;20.90;99.90;;;;;;5019108;28;20211;-65
2022/09/10 09:07:48;;;;;;;13.25;8.77;;;21.30;99.90;;;;;;5032863;28;20252;-63
2022/09/10 09:10:23;;;;;;;14.05;7.78;;;21.50;99.90;;;;;;5023984;28;20249;-65
2022/09/10 09:12:55;;;;;;;9.13;7.95;;;22.00;99.90;;;;;;5028048;28;20257;-65
2022/09/10 09:15:48;;;;;;;9.98;7.97;;;22.00;99.90;;;;;;5029853;28;20188;-65
2022/09/10 09:18:22;;;;;;;11.60;7.47;;;21.90;99.90;;;;;;5015510;28;20210;-65
2022/09/10 09:20:52;;;;;;;10.65;7.65;;;21.70;99.90;;;;;;5015174;28;20198;-65
2022/09/10 09:23:21;;;;;;;11.88;8.20;;;21.50;99.90;;;;;;5015666;28;20206;-66
2022/09/10 09:25:49;;;;;;;8.38;7.03;;;21.40;99.90;;;;;;5026303;28;20179;-65
2022/09/10 09:28:34;;;;;;;11.55;7.60;;;21.50;99.90;;;;;;5014953;28;20706;-65
2022/09/10 09:31:06;;;;;;;13.75;8.13;;;21.50;99.90;;;;;;5019735;28;20648;-64
2022/09/10 09:33:32;;;;;;;8.85;6.95;;;21.70;99.90;;;;;;5015256;28;20180;-63
2022/09/10 09:36:01;;;;;;;14.73;6.32;;;22.10;99.90;;;;;;5015168;28;20315;-64
2022/09/10 09:38:37;;;;;;;10.18;6.60;;;22.40;99.90;;;;;;5014758;28;20257;-64
2022/09/10 09:41:17;;;;;;;13.93;7.25;;;22.50;99.90;;;;;;5015263;28;20193;-65
2022/09/10 09:43:54;;;;;;;9.07;6.75;;;22.50;99.90;;;;;;5015376;28;20266;-64
2022/09/10 09:46:21;;;;;;;8.98;6.15;;;22.60;99.90;;;;;;5016568;28;20640;-66
2022/09/10 09:48:52;;;;;;;11.15;6.68;;;22.40;99.90;;;;;;5021563;28;20522;-67
2022/09/10 09:51:19;;;;;;;8.77;6.07;;;22.40;99.90;;;;;;5015986;28;20179;-64
2022/09/10 09:53:49;;;;;;;6.40;5.85;;;22.10;99.90;;;;;;5013954;28;20190;-65
2022/09/10 09:56:26;;;;;;;8.68;6.95;;;21.90;99.90;;;;;;5014922;28;20278;-67
2022/09/10 09:58:52;;;;;;;10.15;6.85;;;21.40;99.90;;;;;;5020445;28;20280;-65
2022/09/10 10:01:21;;;;;;;9.95;5.65;;;21.20;99.90;;;;;;5014524;28;20211;-65
2022/09/10 10:04:01;;;;;;;10.93;7.93;;;21.00;99.90;;;;;;5019316;28;20186;-65
2022/09/10 10:06:45;;;;;;;11.20;6.63;;;21.10;99.90;;;;;;5016006;28;20330;-65
2022/09/10 10:09:21;;;;;;;8.18;6.78;;;21.30;99.90;;;;;;5026952;28;20190;-65
2022/09/10 10:11:53;;;;;;;10.73;7.20;;;21.60;99.90;;;;;;5029461;28;20191;-65
2022/09/10 10:14:24;;;;;;;7.13;6.40;;;22.00;99.90;;;;;;5014825;28;20765;-65
2022/09/10 10:16:52;;;;;;;10.93;6.35;;;22.10;99.90;;;;;;5019662;28;20213;-65
2022/09/10 10:19:35;;;;;;;10.27;6.78;;;22.20;99.90;;;;;;5024691;28;20195;-64
2022/09/10 10:22:13;;;;;;;7.68;5.32;;;22.10;99.90;;;;;;5020180;28;20647;-65
2022/09/10 10:24:41;;;;;;;6.30;5.68;;;22.10;99.90;;;;;;5017852;28;20652;-65
2022/09/10 10:27:29;;;;;;;9.75;5.60;;;22.10;99.90;;;;;;5022331;28;20225;-64
2022/09/10 10:30:16;;;;;;;14.18;6.03;;;21.70;99.90;;;;;;5018987;28;20182;-65
2022/09/10 10:32:56;;;;;;;6.25;5.63;;;21.50;99.90;;;;;;5013710;28;20191;-64
2022/09/10 10:35:34;;;;;;;11.25;5.57;;;21.60;99.90;;;;;;5014502;28;20191;-64
2022/09/10 10:38:32;;;;;;;7.80;5.28;;;21.70;99.90;;;;;;5040486;28;20732;-66
2022/09/10 10:41:12;;;;;;;5.55;4.57;;;22.00;99.90;;;;;;5014495;28;20755;-65
2022/09/10 10:44:00;;;;;;;5.55;4.45;;;22.20;99.90;;;;;;5013642;28;20205;-64
2022/09/10 10:46:29;;;;;;;6.45;4.63;;;22.30;99.90;;;;;;5026985;28;20217;-65
2022/09/10 10:49:15;;;;;;;7.35;5.07;;;22.20;99.90;;;;;;5020115;28;20648;-66
2022/09/10 10:52:04;;;;;;;5.82;4.05;;;22.30;99.90;;;;;;5026238;28;20620;-65
2022/09/10 10:55:00;;;;;;;5.22;3.90;;;22.60;99.90;;;;;;5030910;28;20193;-65
2022/09/10 10:57:49;;;;;;;4.50;3.83;;;23.00;99.90;;;;;;5024880;28;20261;-67
2022/09/10 11:00:18;;;;;;;4.82;3.40;;;23.10;99.90;;;;;;5026331;28;20200;-66
2022/09/10 11:03:00;;;;;;;4.72;3.63;;;23.10;99.90;;;;;;5026323;28;20183;-67
2022/09/10 11:05:30;;;;;;;4.05;3.65;;;22.80;99.90;;;;;;5023584;28;20225;-67
2022/09/10 11:08:00;;;;;;;8.50;4.15;;;22.80;99.90;;;;;;5019406;28;20213;-67
2022/09/10 11:10:46;;;;;;;6.65;4.45;;;22.80;99.90;;;;;;5013298;28;20188;-67
2022/09/10 11:13:21;;;;;;;4.78;3.25;;;22.60;99.90;;;;;;5025774;28;20266;-67
2022/09/10 11:15:58;;;;;;;6.57;3.38;;;22.40;99.90;;;;;;5013952;28;20186;-67
2022/09/10 11:18:42;;;;;;;4.93;3.25;;;22.30;99.90;;;;;;5016988;28;20673;-67
2022/09/10 11:21:30;;;;;;;3.58;3.08;;;22.00;99.90;;;;;;5017076;28;20179;-67
2022/09/10 11:24:00;;;;;;;3.95;2.83;;;21.80;99.90;;;;;;5030642;28;20206;-67
2022/09/10 11:26:39;;;;;;;6.15;3.70;;;21.70;99.90;;;;;;5021494;28;20183;-67
2022/09/10 11:29:22;;;;;;;4.65;3.60;;;21.40;99.90;;;;;;5021018;28;20771;-67
2022/09/10 11:31:59;;;;;;;7.45;4.47;;;21.10;99.90;;;;;;5013608;28;20188;-68
2022/09/10 11:34:49;;;;;;;6.90;4.30;;;21.10;99.90;;;;;;5017731;28;20652;-67
2022/09/10 11:37:37;;;;;;;7.32;3.70;;;21.00;99.90;;;;;;5013304;28;20250;-67
2022/09/10 11:40:11;;;;;;;6.63;4.55;;;21.00;99.90;;;;;;5012506;28;20190;-67
2022/09/10 11:42:43;;;;;;;13.63;4.25;;;21.00;99.90;;;;;;5021208;28;20648;-67
2022/09/10 11:45:35;;;;;;;7.80;5.35;;;20.90;99.90;;;;;;5030479;28;20206;-67
2022/09/10 11:48:22;;;;;;;9.07;3.58;;;20.90;99.90;;;;;;5020920;28;20201;-67
2022/09/10 11:50:51;;;;;;;5.50;4.35;;;20.70;99.90;;;;;;5011738;28;20182;-67
2022/09/10 11:53:20;;;;;;;6.32;4.65;;;20.70;99.90;;;;;;5012870;28;20229;-68
2022/09/10 11:56:05;;;;;;;6.38;4.03;;;20.70;99.90;;;;;;5021265;28;20539;-67
2022/09/10 11:58:59;;;;;;;8.00;4.15;;;20.60;99.90;;;;;;5016281;28;20894;-67
2022/09/10 12:01:49;;;;;;;6.18;4.35;;;20.50;99.90;;;;;;5026050;28;20190;-68
2022/09/10 12:04:46;;;;;;;14.35;4.57;;;20.30;99.90;;;;;;5011310;28;20652;-68
2022/09/10 12:07:38;;;;;;;7.00;5.30;;;20.20;99.90;;;;;;5018301;28;20238;-66
2022/09/10 12:10:14;;;;;;;6.93;4.18;;;20.10;99.90;;;;;;5011851;28;20192;-67
2022/09/10 12:12:48;;;;;;;4.22;3.83;;;20.00;99.90;;;;;;5017983;28;20301;-65
2022/09/10 12:15:33;;;;;;;6.93;4.85;;;19.90;99.90;;;;;;5030282;28;20167;-65
2022/09/10 12:18:06;;;;;;;3.85;3.45;;;19.90;99.90;;;;;;5018925;28;20218;-65
2022/09/10 12:20:55;;;;;;;7.63;3.78;;;19.90;99.90;;;;;;5015037;28;20188;-66
2022/09/10 12:23:30;;;;;;;4.63;3.33;;;19.80;99.90;;;;;;5017044;28;20261;-67
2022/09/10 12:26:09;;;;;;;6.10;3.80;;;19.90;99.90;;;;;;5012683;28;20183;-65
2022/09/10 12:28:41;;;;;;;5.53;3.97;;;19.90;99.90;;;;;;5012835;28;20187;-65
2022/09/10 12:31:10;;;;;;;7.57;3.72;;;19.90;99.90;;;;;;5012413;28;20256;-66
2022/09/10 12:34:06;;;;;;;6.32;3.83;;;19.90;99.90;;;;;;5022153;28;20172;-66
2022/09/10 12:36:32;;;;;;;9.02;4.10;;;19.90;99.90;;;;;;5013592;28;20179;-66
2022/09/10 12:39:26;;;;;;;6.03;3.55;;;19.90;99.90;;;;;;5019502;28;20190;-66
2022/09/10 12:41:54;;;;;;;4.75;3.42;;;19.90;99.90;;;;;;5026360;28;20194;-66
2022/09/10 12:44:29;;;;;;;8.10;4.68;;;19.90;99.90;;;;;;5014029;28;20184;-66
2022/09/10 12:47:12;;;;;;;6.82;4.32;;;19.80;99.90;;;;;;5013149;28;20648;-67
2022/09/10 12:49:57;;;;;;;9.25;4.82;;;19.70;99.90;;;;;;5020565;28;20557;-66
2022/09/10 12:52:38;;;;;;;7.47;5.90;;;19.60;99.90;;;;;;5020477;28;20194;-66
2022/09/10 12:55:20;;;;;;;9.60;5.38;;;19.60;99.90;;;;;;5031079;28;20273;-66
2022/09/10 12:58:14;;;;;;;9.25;4.55;;;19.50;99.90;;;;;;5021710;28;20203;-66
2022/09/10 13:01:06;;;;;;;12.05;6.70;;;19.50;99.90;;;;;;5018274;28;20268;-66